sensor_id;sensor_type;location;lat;lon;timestamp;pressure;altitude;pressure_sealevel;temperature;humidity
34931;BME280;21134;49.646;8.560;2022-12-16T00:00:07;99610.41;;;-4.27;90.71
34931;BME280;21134;49.646;8.560;2022-12-16T00:02:36;99606.25;;;-4.27;90.02
34931;BME280;21134;49.646;8.560;2022-12-16T00:05:03;99606.19;;;-4.28;90.07
34931;BME280;21134;49.646;8.560;2022-12-16T00:07:30;99615.97;;;-4.33;91.03
34931;BME280;21134;49.646;8.560;2022-12-16T00:09:56;99611.88;;;-4.31;89.57
34931;BME280;21134;49.646;8.560;2022-12-16T00:12:23;99613.75;;;-4.27;90.73
34931;BME280;21134;49.646;8.560;2022-12-16T00:14:49;99616.03;;;-4.31;90.23
34931;BME280;21134;49.646;8.560;2022-12-16T00:17:16;99626.28;;;-4.45;90.73
34931;BME280;21134;49.646;8.560;2022-12-16T00:19:43;99623.16;;;-4.58;91.23
34931;BME280;21134;49.646;8.560;2022-12-16T00:22:10;99629.28;;;-4.52;90.58
34931;BME280;21134;49.646;8.560;2022-12-16T00:24:36;99630.41;;;-4.45;90.28
34931;BME280;21134;49.646;8.560;2022-12-16T00:27:03;99633.34;;;-4.54;90.29
34931;BME280;21134;49.646;8.560;2022-12-16T00:29:29;99637.38;;;-4.38;88.99
34931;BME280;21134;49.646;8.560;2022-12-16T00:31:56;99639.59;;;-4.44;89.63
34931;BME280;21134;49.646;8.560;2022-12-16T00:34:22;99646.34;;;-4.61;90.02
34931;BME280;21134;49.646;8.560;2022-12-16T00:36:50;99645.06;;;-4.53;90.33
34931;BME280;21134;49.646;8.560;2022-12-16T00:39:17;99651.81;;;-4.50;90.51
34931;BME280;21134;49.646;8.560;2022-12-16T00:41:43;99650.75;;;-4.55;89.84
34931;BME280;21134;49.646;8.560;2022-12-16T00:44:12;99650.63;;;-4.58;90.11
34931;BME280;21134;49.646;8.560;2022-12-16T00:46:38;99648.50;;;-4.69;91.22
34931;BME280;21134;49.646;8.560;2022-12-16T00:49:05;99661.03;;;-4.67;90.51
34931;BME280;21134;49.646;8.560;2022-12-16T00:51:31;99663.59;;;-4.65;90.13
34931;BME280;21134;49.646;8.560;2022-12-16T00:53:59;99662.72;;;-4.66;91.04
34931;BME280;21134;49.646;8.560;2022-12-16T00:56:26;99665.31;;;-4.64;90.86
34931;BME280;21134;49.646;8.560;2022-12-16T00:58:52;99659.75;;;-4.59;89.77
34931;BME280;21134;49.646;8.560;2022-12-16T01:01:19;99666.00;;;-4.49;89.78
34931;BME280;21134;49.646;8.560;2022-12-16T01:03:45;99675.50;;;-4.42;89.11
34931;BME280;21134;49.646;8.560;2022-12-16T01:06:15;99674.06;;;-4.55;89.26
34931;BME280;21134;49.646;8.560;2022-12-16T01:08:41;99679.63;;;-4.60;89.48
34931;BME280;21134;49.646;8.560;2022-12-16T01:11:14;99678.97;;;-4.38;89.24
34931;BME280;21134;49.646;8.560;2022-12-16T01:13:41;99685.28;;;-4.47;88.76
34931;BME280;21134;49.646;8.560;2022-12-16T01:16:08;99687.19;;;-4.41;89.25
34931;BME280;21134;49.646;8.560;2022-12-16T01:18:34;99696.88;;;-4.47;89.50
34931;BME280;21134;49.646;8.560;2022-12-16T01:21:02;99694.31;;;-4.49;89.45
34931;BME280;21134;49.646;8.560;2022-12-16T01:23:29;99699.69;;;-4.59;89.81
34931;BME280;21134;49.646;8.560;2022-12-16T01:25:58;99700.81;;;-4.52;90.43
34931;BME280;21134;49.646;8.560;2022-12-16T01:28:26;99699.19;;;-4.52;90.26
34931;BME280;21134;49.646;8.560;2022-12-16T01:30:57;99703.69;;;-4.62;89.96
34931;BME280;21134;49.646;8.560;2022-12-16T01:33:26;99699.53;;;-4.62;90.12
34931;BME280;21134;49.646;8.560;2022-12-16T01:35:58;99697.03;;;-4.80;91.15
34931;BME280;21134;49.646;8.560;2022-12-16T01:38:24;99698.59;;;-4.82;90.83
34931;BME280;21134;49.646;8.560;2022-12-16T01:40:50;99697.38;;;-4.90;92.00
34931;BME280;21134;49.646;8.560;2022-12-16T01:43:19;99706.31;;;-4.77;90.38
34931;BME280;21134;49.646;8.560;2022-12-16T01:45:49;99701.38;;;-4.76;91.47
34931;BME280;21134;49.646;8.560;2022-12-16T01:48:24;99699.66;;;-4.77;90.59
34931;BME280;21134;49.646;8.560;2022-12-16T01:50:53;99699.75;;;-4.75;91.71
34931;BME280;21134;49.646;8.560;2022-12-16T01:53:23;99700.66;;;-4.73;90.45
34931;BME280;21134;49.646;8.560;2022-12-16T01:55:51;99700.16;;;-4.66;90.41
34931;BME280;21134;49.646;8.560;2022-12-16T01:58:21;99696.41;;;-4.58;90.67
34931;BME280;21134;49.646;8.560;2022-12-16T02:00:50;99689.78;;;-4.75;91.41
34931;BME280;21134;49.646;8.560;2022-12-16T02:03:17;99696.91;;;-4.65;89.82
34931;BME280;21134;49.646;8.560;2022-12-16T02:05:44;99690.03;;;-4.69;90.35
34931;BME280;21134;49.646;8.560;2022-12-16T02:08:13;99690.97;;;-4.67;89.59
34931;BME280;21134;49.646;8.560;2022-12-16T02:10:51;99691.81;;;-4.67;89.50
34931;BME280;21134;49.646;8.560;2022-12-16T02:13:32;99692.53;;;-4.69;90.68
34931;BME280;21134;49.646;8.560;2022-12-16T02:16:07;99696.81;;;-4.67;90.02
34931;BME280;21134;49.646;8.560;2022-12-16T02:18:46;99694.13;;;-4.71;89.06
34931;BME280;21134;49.646;8.560;2022-12-16T02:21:33;99690.09;;;-4.85;91.09
34931;BME280;21134;49.646;8.560;2022-12-16T02:27:37;99680.34;;;-4.99;92.15
34931;BME280;21134;49.646;8.560;2022-12-16T02:30:21;99687.97;;;-4.96;90.73
34931;BME280;21134;49.646;8.560;2022-12-16T02:32:52;99689.81;;;-5.09;91.90
34931;BME280;21134;49.646;8.560;2022-12-16T02:35:27;99682.03;;;-5.16;92.38
34931;BME280;21134;49.646;8.560;2022-12-16T02:38:06;99686.72;;;-5.22;92.64
34931;BME280;21134;49.646;8.560;2022-12-16T02:40:41;99688.06;;;-5.28;92.81
34931;BME280;21134;49.646;8.560;2022-12-16T02:43:16;99689.00;;;-5.43;93.14
34931;BME280;21134;49.646;8.560;2022-12-16T02:45:46;99690.44;;;-5.48;92.59
34931;BME280;21134;49.646;8.560;2022-12-16T02:48:12;99682.97;;;-5.64;93.78
34931;BME280;21134;49.646;8.560;2022-12-16T02:50:43;99686.53;;;-5.59;92.90
34931;BME280;21134;49.646;8.560;2022-12-16T02:53:12;99687.53;;;-5.55;92.93
34931;BME280;21134;49.646;8.560;2022-12-16T02:55:48;99689.63;;;-5.47;93.88
34931;BME280;21134;49.646;8.560;2022-12-16T02:58:19;99694.84;;;-5.26;93.72
34931;BME280;21134;49.646;8.560;2022-12-16T03:00:56;99698.47;;;-5.19;93.30
34931;BME280;21134;49.646;8.560;2022-12-16T03:03:30;99703.13;;;-5.09;91.63
34931;BME280;21134;49.646;8.560;2022-12-16T03:06:01;99704.47;;;-5.16;91.75
34931;BME280;21134;49.646;8.560;2022-12-16T03:08:32;99702.81;;;-5.15;91.66
34931;BME280;21134;49.646;8.560;2022-12-16T03:11:04;99703.38;;;-5.21;92.95
34931;BME280;21134;49.646;8.560;2022-12-16T03:13:35;99707.59;;;-5.20;92.72
34931;BME280;21134;49.646;8.560;2022-12-16T03:16:06;99703.13;;;-5.09;91.62
34931;BME280;21134;49.646;8.560;2022-12-16T03:18:37;99704.47;;;-5.16;91.84
34931;BME280;21134;49.646;8.560;2022-12-16T03:21:08;99698.53;;;-5.18;91.65
34931;BME280;21134;49.646;8.560;2022-12-16T03:23:38;99704.38;;;-5.17;92.02
34931;BME280;21134;49.646;8.560;2022-12-16T03:26:09;99702.88;;;-5.31;93.45
34931;BME280;21134;49.646;8.560;2022-12-16T03:28:43;99707.00;;;-5.32;92.84
34931;BME280;21134;49.646;8.560;2022-12-16T03:31:21;99709.84;;;-5.24;91.61
34931;BME280;21134;49.646;8.560;2022-12-16T03:33:55;99708.16;;;-5.25;92.17
34931;BME280;21134;49.646;8.560;2022-12-16T03:36:24;99710.16;;;-5.18;91.86
34931;BME280;21134;49.646;8.560;2022-12-16T03:38:52;99712.81;;;-5.15;91.81
34931;BME280;21134;49.646;8.560;2022-12-16T03:41:22;99717.16;;;-5.11;90.72
34931;BME280;21134;49.646;8.560;2022-12-16T03:43:49;99716.84;;;-5.17;90.57
34931;BME280;21134;49.646;8.560;2022-12-16T03:46:19;99718.13;;;-5.25;92.68
34931;BME280;21134;49.646;8.560;2022-12-16T03:48:48;99725.44;;;-5.28;91.90
34931;BME280;21134;49.646;8.560;2022-12-16T03:51:15;99728.59;;;-5.32;92.28
34931;BME280;21134;49.646;8.560;2022-12-16T03:53:41;99731.94;;;-5.32;93.20
34931;BME280;21134;49.646;8.560;2022-12-16T03:56:08;99732.53;;;-5.36;92.43
34931;BME280;21134;49.646;8.560;2022-12-16T03:58:35;99732.13;;;-5.27;92.94
34931;BME280;21134;49.646;8.560;2022-12-16T04:01:04;99730.94;;;-5.18;92.29
34931;BME280;21134;49.646;8.560;2022-12-16T04:03:32;99737.38;;;-5.23;93.27
34931;BME280;21134;49.646;8.560;2022-12-16T04:05:58;99732.31;;;-5.41;92.27
34931;BME280;21134;49.646;8.560;2022-12-16T04:08:25;99740.78;;;-5.37;93.36
34931;BME280;21134;49.646;8.560;2022-12-16T04:10:52;99747.72;;;-5.31;92.68
34931;BME280;21134;49.646;8.560;2022-12-16T04:13:36;99757.38;;;-5.21;91.98
34931;BME280;21134;49.646;8.560;2022-12-16T04:16:20;99756.03;;;-5.15;91.30
34931;BME280;21134;49.646;8.560;2022-12-16T04:19:05;99759.34;;;-5.32;91.83
34931;BME280;21134;49.646;8.560;2022-12-16T04:21:51;99759.25;;;-5.33;92.75
34931;BME280;21134;49.646;8.560;2022-12-16T04:24:36;99768.47;;;-5.32;92.24
34931;BME280;21134;49.646;8.560;2022-12-16T04:27:02;99773.19;;;-5.21;91.69
34931;BME280;21134;49.646;8.560;2022-12-16T04:29:46;99776.31;;;-5.25;92.71
34931;BME280;21134;49.646;8.560;2022-12-16T04:32:36;99778.66;;;-5.28;91.63
34931;BME280;21134;49.646;8.560;2022-12-16T04:35:22;99783.09;;;-5.39;93.22
34931;BME280;21134;49.646;8.560;2022-12-16T04:38:05;99791.13;;;-5.44;91.59
34931;BME280;21134;49.646;8.560;2022-12-16T04:40:49;99789.78;;;-5.38;92.64
34931;BME280;21134;49.646;8.560;2022-12-16T04:43:33;99794.09;;;-5.51;92.25
34931;BME280;21134;49.646;8.560;2022-12-16T04:46:17;99805.28;;;-5.59;92.06
34931;BME280;21134;49.646;8.560;2022-12-16T04:49:01;99810.09;;;-5.63;93.30
34931;BME280;21134;49.646;8.560;2022-12-16T04:51:46;99809.78;;;-5.69;92.67
34931;BME280;21134;49.646;8.560;2022-12-16T04:54:30;99812.91;;;-5.73;92.94
34931;BME280;21134;49.646;8.560;2022-12-16T04:57:14;99810.53;;;-5.86;94.01
34931;BME280;21134;49.646;8.560;2022-12-16T04:59:58;99816.59;;;-5.97;93.49
34931;BME280;21134;49.646;8.560;2022-12-16T05:02:42;99823.72;;;-6.03;94.10
34931;BME280;21134;49.646;8.560;2022-12-16T05:05:26;99827.53;;;-6.10;94.17
34931;BME280;21134;49.646;8.560;2022-12-16T05:08:11;99825.41;;;-6.19;93.81
34931;BME280;21134;49.646;8.560;2022-12-16T05:10:55;99829.34;;;-6.22;93.84
34931;BME280;21134;49.646;8.560;2022-12-16T05:13:39;99840.09;;;-6.23;94.58
34931;BME280;21134;49.646;8.560;2022-12-16T05:16:23;99840.19;;;-6.22;94.46
34931;BME280;21134;49.646;8.560;2022-12-16T05:19:06;99857.00;;;-6.18;94.44
34931;BME280;21134;49.646;8.560;2022-12-16T05:21:53;99859.38;;;-6.19;93.97
34931;BME280;21134;49.646;8.560;2022-12-16T05:24:38;99862.31;;;-6.26;94.06
34931;BME280;21134;49.646;8.560;2022-12-16T05:27:22;99869.81;;;-6.41;94.08
34931;BME280;21134;49.646;8.560;2022-12-16T05:30:07;99861.03;;;-6.49;93.71
34931;BME280;21134;49.646;8.560;2022-12-16T05:32:52;99869.09;;;-6.53;93.63
34931;BME280;21134;49.646;8.560;2022-12-16T05:35:36;99870.91;;;-6.66;93.73
34931;BME280;21134;49.646;8.560;2022-12-16T05:38:20;99883.94;;;-6.70;95.08
34931;BME280;21134;49.646;8.560;2022-12-16T05:41:05;99882.78;;;-6.75;94.51
34931;BME280;21134;49.646;8.560;2022-12-16T05:43:49;99889.13;;;-6.80;93.98
34931;BME280;21134;49.646;8.560;2022-12-16T05:46:33;99891.97;;;-6.89;94.40
34931;BME280;21134;49.646;8.560;2022-12-16T05:49:17;99891.41;;;-6.98;94.26
34931;BME280;21134;49.646;8.560;2022-12-16T05:52:01;99897.13;;;-6.99;94.81
34931;BME280;21134;49.646;8.560;2022-12-16T05:54:45;99904.50;;;-7.00;95.28
34931;BME280;21134;49.646;8.560;2022-12-16T05:57:35;99915.97;;;-7.03;95.47
34931;BME280;21134;49.646;8.560;2022-12-16T06:00:20;99912.66;;;-7.03;95.83
34931;BME280;21134;49.646;8.560;2022-12-16T06:03:04;99920.78;;;-7.06;95.44
34931;BME280;21134;49.646;8.560;2022-12-16T06:05:58;99928.03;;;-7.09;94.98
34931;BME280;21134;49.646;8.560;2022-12-16T06:08:39;99925.19;;;-7.15;95.64
34931;BME280;21134;49.646;8.560;2022-12-16T06:11:23;99926.44;;;-7.21;95.82
34931;BME280;21134;49.646;8.560;2022-12-16T06:14:08;99937.63;;;-7.15;95.23
34931;BME280;21134;49.646;8.560;2022-12-16T06:16:52;99932.13;;;-7.24;95.07
34931;BME280;21134;49.646;8.560;2022-12-16T06:19:36;99945.19;;;-7.13;95.86
34931;BME280;21134;49.646;8.560;2022-12-16T06:22:20;99939.00;;;-7.20;95.15
34931;BME280;21134;49.646;8.560;2022-12-16T06:25:04;99947.38;;;-7.18;94.68
34931;BME280;21134;49.646;8.560;2022-12-16T06:27:50;99945.59;;;-7.20;95.22
34931;BME280;21134;49.646;8.560;2022-12-16T06:30:47;99958.69;;;-7.23;95.29
34931;BME280;21134;49.646;8.560;2022-12-16T06:33:31;99962.50;;;-7.28;95.16
34931;BME280;21134;49.646;8.560;2022-12-16T06:36:15;99963.53;;;-7.25;95.59
34931;BME280;21134;49.646;8.560;2022-12-16T06:38:59;99966.69;;;-7.14;95.19
34931;BME280;21134;49.646;8.560;2022-12-16T06:41:43;99969.06;;;-7.15;96.13
34931;BME280;21134;49.646;8.560;2022-12-16T06:44:27;99977.38;;;-7.15;96.06
34931;BME280;21134;49.646;8.560;2022-12-16T06:47:12;99982.00;;;-7.08;96.75
34931;BME280;21134;49.646;8.560;2022-12-16T06:49:56;99990.19;;;-7.09;97.01
34931;BME280;21134;49.646;8.560;2022-12-16T06:52:41;99988.28;;;-7.13;97.42
34931;BME280;21134;49.646;8.560;2022-12-16T06:55:25;99996.53;;;-7.14;97.05
34931;BME280;21134;49.646;8.560;2022-12-16T06:58:09;99993.63;;;-7.07;97.51
34931;BME280;21134;49.646;8.560;2022-12-16T07:00:53;100004.44;;;-7.06;96.91
34931;BME280;21134;49.646;8.560;2022-12-16T07:03:44;100006.47;;;-7.14;96.55
34931;BME280;21134;49.646;8.560;2022-12-16T07:06:28;100013.81;;;-7.15;96.50
34931;BME280;21134;49.646;8.560;2022-12-16T07:09:12;100005.13;;;-7.22;96.13
34931;BME280;21134;49.646;8.560;2022-12-16T07:11:56;100003.59;;;-7.20;96.73
34931;BME280;21134;49.646;8.560;2022-12-16T07:14:40;100021.38;;;-7.14;96.15
34931;BME280;21134;49.646;8.560;2022-12-16T07:17:23;100027.41;;;-7.10;96.04
34931;BME280;21134;49.646;8.560;2022-12-16T07:20:09;100030.16;;;-7.19;95.21
34931;BME280;21134;49.646;8.560;2022-12-16T07:22:54;100036.97;;;-7.16;95.48
34931;BME280;21134;49.646;8.560;2022-12-16T07:25:38;100047.16;;;-7.12;95.21
34931;BME280;21134;49.646;8.560;2022-12-16T07:28:21;100042.50;;;-7.20;95.19
34931;BME280;21134;49.646;8.560;2022-12-16T07:31:05;100047.09;;;-7.27;95.35
34931;BME280;21134;49.646;8.560;2022-12-16T07:33:49;100049.41;;;-7.30;96.03
34931;BME280;21134;49.646;8.560;2022-12-16T07:36:35;100051.31;;;-7.39;95.33
34931;BME280;21134;49.646;8.560;2022-12-16T07:39:18;100055.69;;;-7.35;95.21
34931;BME280;21134;49.646;8.560;2022-12-16T07:42:03;100066.22;;;-7.26;95.36
34931;BME280;21134;49.646;8.560;2022-12-16T07:44:47;100078.25;;;-7.18;95.23
34931;BME280;21134;49.646;8.560;2022-12-16T07:47:31;100079.28;;;-7.15;95.61
34931;BME280;21134;49.646;8.560;2022-12-16T07:50:15;100084.75;;;-7.07;95.93
34931;BME280;21134;49.646;8.560;2022-12-16T07:53:01;100086.09;;;-6.99;95.15
34931;BME280;21134;49.646;8.560;2022-12-16T07:55:45;100086.38;;;-6.94;95.51
34931;BME280;21134;49.646;8.560;2022-12-16T07:58:28;100091.53;;;-6.91;95.64
34931;BME280;21134;49.646;8.560;2022-12-16T08:01:13;100097.09;;;-6.82;96.19
34931;BME280;21134;49.646;8.560;2022-12-16T08:03:57;100096.09;;;-6.71;96.10
34931;BME280;21134;49.646;8.560;2022-12-16T08:06:53;100103.69;;;-6.69;96.60
34931;BME280;21134;49.646;8.560;2022-12-16T08:09:38;100108.13;;;-6.64;95.76
34931;BME280;21134;49.646;8.560;2022-12-16T08:12:22;100105.56;;;-6.52;96.29
34931;BME280;21134;49.646;8.560;2022-12-16T08:15:07;100112.22;;;-6.51;96.76
34931;BME280;21134;49.646;8.560;2022-12-16T08:17:51;100115.66;;;-6.36;96.90
34931;BME280;21134;49.646;8.560;2022-12-16T08:20:36;100122.03;;;-6.26;95.52
34931;BME280;21134;49.646;8.560;2022-12-16T08:23:20;100120.28;;;-6.14;96.09
34931;BME280;21134;49.646;8.560;2022-12-16T08:26:06;100126.06;;;-6.00;95.71
34931;BME280;21134;49.646;8.560;2022-12-16T08:28:49;100134.69;;;-5.95;95.23
34931;BME280;21134;49.646;8.560;2022-12-16T08:31:39;100133.81;;;-5.95;94.82
34931;BME280;21134;49.646;8.560;2022-12-16T08:34:23;100135.88;;;-5.88;95.57
34931;BME280;21134;49.646;8.560;2022-12-16T08:37:07;100141.53;;;-5.91;94.19
34931;BME280;21134;49.646;8.560;2022-12-16T08:39:51;100144.66;;;-5.95;94.80
34931;BME280;21134;49.646;8.560;2022-12-16T08:42:37;100151.94;;;-5.98;94.88
34931;BME280;21134;49.646;8.560;2022-12-16T08:45:20;100152.38;;;-5.90;95.53
34931;BME280;21134;49.646;8.560;2022-12-16T08:48:05;100157.28;;;-5.77;94.79
34931;BME280;21134;49.646;8.560;2022-12-16T08:50:49;100159.69;;;-5.78;95.81
34931;BME280;21134;49.646;8.560;2022-12-16T08:53:47;100168.78;;;-5.79;95.44
34931;BME280;21134;49.646;8.560;2022-12-16T08:56:31;100172.84;;;-5.66;95.51
34931;BME280;21134;49.646;8.560;2022-12-16T08:59:17;100180.19;;;-5.54;94.63
34931;BME280;21134;49.646;8.560;2022-12-16T09:02:00;100184.09;;;-5.45;94.02
34931;BME280;21134;49.646;8.560;2022-12-16T09:04:44;100183.97;;;-5.46;93.38
34931;BME280;21134;49.646;8.560;2022-12-16T09:07:28;100192.59;;;-5.41;94.10
34931;BME280;21134;49.646;8.560;2022-12-16T09:10:12;100189.00;;;-5.31;93.21
34931;BME280;21134;49.646;8.560;2022-12-16T09:13:04;100190.31;;;-5.23;94.58
34931;BME280;21134;49.646;8.560;2022-12-16T09:15:49;100196.66;;;-5.13;94.50
34931;BME280;21134;49.646;8.560;2022-12-16T09:18:33;100194.59;;;-5.06;94.02
34931;BME280;21134;49.646;8.560;2022-12-16T09:21:17;100201.03;;;-4.95;94.00
34931;BME280;21134;49.646;8.560;2022-12-16T09:24:01;100206.47;;;-4.87;93.14
34931;BME280;21134;49.646;8.560;2022-12-16T09:26:45;100203.34;;;-4.68;93.20
34931;BME280;21134;49.646;8.560;2022-12-16T09:29:29;100203.47;;;-4.50;91.45
34931;BME280;21134;49.646;8.560;2022-12-16T09:32:14;100206.09;;;-4.17;90.90
34931;BME280;21134;49.646;8.560;2022-12-16T09:34:58;100204.44;;;-4.17;89.95
34931;BME280;21134;49.646;8.560;2022-12-16T09:37:44;100207.13;;;-4.14;89.47
34931;BME280;21134;49.646;8.560;2022-12-16T09:40:36;100219.38;;;-4.02;89.77
34931;BME280;21134;49.646;8.560;2022-12-16T09:43:32;100227.81;;;-4.00;90.08
34931;BME280;21134;49.646;8.560;2022-12-16T09:46:26;100227.13;;;-3.98;90.78
34931;BME280;21134;49.646;8.560;2022-12-16T09:49:20;100217.38;;;-3.77;88.22
34931;BME280;21134;49.646;8.560;2022-12-16T09:52:14;100224.25;;;-3.56;87.77
34931;BME280;21134;49.646;8.560;2022-12-16T09:55:00;100226.06;;;-3.70;88.44
34931;BME280;21134;49.646;8.560;2022-12-16T09:57:45;100220.59;;;-3.63;87.62
34931;BME280;21134;49.646;8.560;2022-12-16T10:00:31;100222.78;;;-3.53;88.08
34931;BME280;21134;49.646;8.560;2022-12-16T10:03:23;100225.97;;;-3.39;86.92
34931;BME280;21134;49.646;8.560;2022-12-16T10:06:19;100221.44;;;-3.46;87.01
34931;BME280;21134;49.646;8.560;2022-12-16T10:09:16;100222.75;;;-3.36;86.65
34931;BME280;21134;49.646;8.560;2022-12-16T10:12:09;100222.84;;;-3.35;86.95
34931;BME280;21134;49.646;8.560;2022-12-16T10:14:59;100234.69;;;-3.14;86.05
34931;BME280;21134;49.646;8.560;2022-12-16T10:17:46;100223.75;;;-3.16;85.64
34931;BME280;21134;49.646;8.560;2022-12-16T10:20:38;100219.19;;;-3.07;85.69
34931;BME280;21134;49.646;8.560;2022-12-16T10:23:29;100226.94;;;-3.02;85.92
34931;BME280;21134;49.646;8.560;2022-12-16T10:26:19;100228.25;;;-2.93;85.72
34931;BME280;21134;49.646;8.560;2022-12-16T10:29:14;100231.81;;;-2.88;85.08
34931;BME280;21134;49.646;8.560;2022-12-16T10:32:07;100224.16;;;-2.91;85.56
34931;BME280;21134;49.646;8.560;2022-12-16T10:34:57;100226.50;;;-2.77;84.56
34931;BME280;21134;49.646;8.560;2022-12-16T10:37:42;100226.06;;;-2.69;84.17
34931;BME280;21134;49.646;8.560;2022-12-16T10:40:29;100222.84;;;-2.66;84.32
34931;BME280;21134;49.646;8.560;2022-12-16T10:43:17;100223.44;;;-2.54;83.79
34931;BME280;21134;49.646;8.560;2022-12-16T10:46:06;100225.84;;;-2.38;83.28
34931;BME280;21134;49.646;8.560;2022-12-16T10:48:52;100225.72;;;-2.41;83.75
34931;BME280;21134;49.646;8.560;2022-12-16T10:51:36;100232.78;;;-2.50;84.36
34931;BME280;21134;49.646;8.560;2022-12-16T10:54:29;100229.44;;;-2.32;83.21
34931;BME280;21134;49.646;8.560;2022-12-16T10:57:31;100231.44;;;-2.25;82.84
34931;BME280;21134;49.646;8.560;2022-12-16T11:00:20;100233.44;;;-2.18;83.27
34931;BME280;21134;49.646;8.560;2022-12-16T11:03:16;100241.88;;;-2.16;83.83
34931;BME280;21134;49.646;8.560;2022-12-16T11:06:02;100246.72;;;-2.01;82.32
34931;BME280;21134;49.646;8.560;2022-12-16T11:08:46;100244.97;;;-2.04;83.58
34931;BME280;21134;49.646;8.560;2022-12-16T11:11:30;100241.22;;;-1.94;83.19
34931;BME280;21134;49.646;8.560;2022-12-16T11:14:22;100241.84;;;-1.98;82.82
34931;BME280;21134;49.646;8.560;2022-12-16T11:17:18;100237.28;;;-2.07;83.63
34931;BME280;21134;49.646;8.560;2022-12-16T11:20:21;100243.94;;;-1.70;82.06
34931;BME280;21134;49.646;8.560;2022-12-16T11:23:13;100243.53;;;-1.79;82.68
34931;BME280;21134;49.646;8.560;2022-12-16T11:26:05;100244.22;;;-1.64;81.61
34931;BME280;21134;49.646;8.560;2022-12-16T11:32:13;100246.56;;;-1.87;82.03
34931;BME280;21134;49.646;8.560;2022-12-16T11:35:02;100258.06;;;-1.72;82.15
34931;BME280;21134;49.646;8.560;2022-12-16T11:37:48;100249.63;;;-1.55;81.75
34931;BME280;21134;49.646;8.560;2022-12-16T11:40:47;100255.06;;;-1.46;81.68
34931;BME280;21134;49.646;8.560;2022-12-16T11:43:32;100251.59;;;-1.48;82.08
34931;BME280;21134;49.646;8.560;2022-12-16T11:46:20;100256.09;;;-1.41;82.73
34931;BME280;21134;49.646;8.560;2022-12-16T11:49:14;100256.69;;;-1.27;82.06
34931;BME280;21134;49.646;8.560;2022-12-16T11:52:02;100258.84;;;-1.15;81.68
34931;BME280;21134;49.646;8.560;2022-12-16T11:54:53;100258.00;;;-1.15;81.15
34931;BME280;21134;49.646;8.560;2022-12-16T11:57:43;100249.03;;;-1.10;80.52
34931;BME280;21134;49.646;8.560;2022-12-16T12:00:30;100266.78;;;-1.06;80.14
34931;BME280;21134;49.646;8.560;2022-12-16T12:03:18;100259.91;;;-1.10;80.22
34931;BME280;21134;49.646;8.560;2022-12-16T12:06:15;100269.94;;;-0.90;78.99
34931;BME280;21134;49.646;8.560;2022-12-16T12:09:10;100273.16;;;-0.93;79.48
34931;BME280;21134;49.646;8.560;2022-12-16T12:12:06;100281.09;;;-0.63;79.23
34931;BME280;21134;49.646;8.560;2022-12-16T12:14:58;100273.81;;;-0.57;78.01
34931;BME280;21134;49.646;8.560;2022-12-16T12:17:49;100282.69;;;-0.65;78.05
34931;BME280;21134;49.646;8.560;2022-12-16T12:20:43;100278.72;;;-0.60;78.90
34931;BME280;21134;49.646;8.560;2022-12-16T12:23:38;100287.00;;;-0.62;78.02
34931;BME280;21134;49.646;8.560;2022-12-16T12:26:28;100281.72;;;-0.48;78.08
34931;BME280;21134;49.646;8.560;2022-12-16T12:29:18;100285.44;;;-0.59;77.51
34931;BME280;21134;49.646;8.560;2022-12-16T12:32:10;100288.03;;;-0.57;77.30
34931;BME280;21134;49.646;8.560;2022-12-16T12:35:05;100291.78;;;-0.48;77.98
34931;BME280;21134;49.646;8.560;2022-12-16T12:37:57;100291.03;;;-0.24;75.14
34931;BME280;21134;49.646;8.560;2022-12-16T12:40:50;100292.00;;;-0.20;75.50
34931;BME280;21134;49.646;8.560;2022-12-16T12:43:43;100295.25;;;-0.23;76.13
34931;BME280;21134;49.646;8.560;2022-12-16T12:46:34;100298.97;;;-0.13;75.69
34931;BME280;21134;49.646;8.560;2022-12-16T12:49:26;100307.38;;;-0.13;74.94
34931;BME280;21134;49.646;8.560;2022-12-16T12:52:28;100308.41;;;-0.08;75.04
34931;BME280;21134;49.646;8.560;2022-12-16T12:55:22;100318.84;;;0.02;75.45
34931;BME280;21134;49.646;8.560;2022-12-16T12:58:11;100321.97;;;-0.04;75.47
34931;BME280;21134;49.646;8.560;2022-12-16T13:00:58;100323.19;;;0.06;74.83
34931;BME280;21134;49.646;8.560;2022-12-16T13:03:48;100322.94;;;0.22;74.50
34931;BME280;21134;49.646;8.560;2022-12-16T13:06:33;100321.41;;;0.03;74.39
34931;BME280;21134;49.646;8.560;2022-12-16T13:09:23;100324.34;;;0.14;75.31
34931;BME280;21134;49.646;8.560;2022-12-16T13:12:27;100332.06;;;0.18;74.46
34931;BME280;21134;49.646;8.560;2022-12-16T13:15:37;100331.59;;;0.29;74.81
34931;BME280;21134;49.646;8.560;2022-12-16T13:18:23;100333.94;;;0.46;73.31
34931;BME280;21134;49.646;8.560;2022-12-16T13:21:43;100330.72;;;0.51;73.68
34931;BME280;21134;49.646;8.560;2022-12-16T13:24:41;100333.25;;;0.28;74.27
34931;BME280;21134;49.646;8.560;2022-12-16T13:27:26;100345.78;;;0.27;74.03
34931;BME280;21134;49.646;8.560;2022-12-16T13:30:20;100342.91;;;0.17;74.50
34931;BME280;21134;49.646;8.560;2022-12-16T13:33:21;100351.81;;;0.09;74.58
34931;BME280;21134;49.646;8.560;2022-12-16T13:36:07;100350.56;;;-0.02;75.40
34931;BME280;21134;49.646;8.560;2022-12-16T13:38:54;100359.31;;;0.08;74.68
34931;BME280;21134;49.646;8.560;2022-12-16T13:41:50;100357.78;;;0.11;74.66
34931;BME280;21134;49.646;8.560;2022-12-16T13:44:56;100362.53;;;0.04;75.03
34931;BME280;21134;49.646;8.560;2022-12-16T13:48:03;100360.47;;;0.16;74.54
34931;BME280;21134;49.646;8.560;2022-12-16T13:50:50;100362.59;;;0.28;74.78
34931;BME280;21134;49.646;8.560;2022-12-16T13:53:41;100369.38;;;0.08;75.42
34931;BME280;21134;49.646;8.560;2022-12-16T13:56:32;100370.63;;;0.19;74.43
34931;BME280;21134;49.646;8.560;2022-12-16T13:59:20;100382.25;;;0.15;74.62
34931;BME280;21134;49.646;8.560;2022-12-16T14:02:18;100389.38;;;0.05;75.10
34931;BME280;21134;49.646;8.560;2022-12-16T14:05:13;100389.00;;;-0.05;75.93
34931;BME280;21134;49.646;8.560;2022-12-16T14:08:00;100388.47;;;-0.18;76.41
34931;BME280;21134;49.646;8.560;2022-12-16T14:10:55;100389.38;;;-0.16;76.71
34931;BME280;21134;49.646;8.560;2022-12-16T14:13:43;100404.06;;;-0.26;77.16
34931;BME280;21134;49.646;8.560;2022-12-16T14:16:36;100403.00;;;-0.11;77.63
34931;BME280;21134;49.646;8.560;2022-12-16T14:19:27;100406.59;;;-0.26;77.11